Time;durP1;ratioP1;P1;durP2;ratioP2;P2;SDS_P1;SDS_P2;PMS_P1;PMS_P2;Temp;Humidity;BMP_temperature;BMP_pressure;BME280_temperature;BME280_humidity;BME280_pressure;Samples;Min_cycle;Max_cycle;Signal;HPM_P1;HPM_P2
2022/01/10 00:00:46;;;;;;;3.88;3.45;;;22.90;55.60;;;;;;4960153;28;20691;-74
2022/01/10 00:03:12;;;;;;;4.68;3.35;;;22.90;55.50;;;;;;4960247;28;20212;-74
2022/01/10 00:05:38;;;;;;;3.67;3.38;;;22.90;55.40;;;;;;4959756;28;20215;-73
2022/01/10 00:08:04;;;;;;;4.07;3.58;;;22.90;55.50;;;;;;4984161;28;20184;-73
2022/01/10 00:10:32;;;;;;;3.95;3.50;;;22.90;55.50;;;;;;4973041;28;20209;-73
2022/01/10 00:12:58;;;;;;;4.18;3.50;;;22.80;55.40;;;;;;4979261;28;20188;-73
2022/01/10 00:15:24;;;;;;;4.90;3.42;;;22.90;55.50;;;;;;5012607;28;20216;-73
2022/01/10 00:17:51;;;;;;;4.25;3.25;;;22.90;55.50;;;;;;4995466;28;20182;-73
2022/01/10 00:20:18;;;;;;;3.92;3.35;;;22.90;55.50;;;;;;5012937;28;20188;-73
2022/01/10 00:22:48;;;;;;;4.60;3.65;;;22.90;55.50;;;;;;4979417;28;20216;-73
2022/01/10 00:25:18;;;;;;;4.53;3.15;;;22.90;55.60;;;;;;5011344;28;20242;-73
2022/01/10 00:27:45;;;;;;;3.80;3.20;;;22.90;55.60;;;;;;4979356;28;20183;-73
2022/01/10 00:30:11;;;;;;;3.50;3.20;;;22.80;55.50;;;;;;4995617;28;20188;-73
2022/01/10 00:32:41;;;;;;;4.32;3.60;;;22.80;55.60;;;;;;5012749;28;20310;-73
2022/01/10 00:35:08;;;;;;;5.13;3.95;;;22.80;55.60;;;;;;4978746;28;20228;-73
2022/01/10 00:37:36;;;;;;;6.28;4.65;;;22.90;55.60;;;;;;4975106;28;20192;-73
2022/01/10 00:40:04;;;;;;;5.00;4.10;;;22.90;55.60;;;;;;4975500;28;20246;-73
2022/01/10 00:42:31;;;;;;;4.85;4.10;;;22.90;55.60;;;;;;4975331;28;20221;-73
2022/01/10 00:44:59;;;;;;;5.70;4.50;;;22.80;55.50;;;;;;4975317;28;20711;-73
2022/01/10 00:47:25;;;;;;;4.97;4.10;;;22.90;55.50;;;;;;4959506;28;20189;-73
2022/01/10 00:49:51;;;;;;;5.18;4.10;;;22.90;55.50;;;;;;4959573;28;20181;-73
2022/01/10 00:52:16;;;;;;;5.15;4.10;;;22.80;55.40;;;;;;4959372;28;20259;-73
2022/01/10 00:54:43;;;;;;;4.63;3.42;;;22.90;55.50;;;;;;4975512;28;20177;-73
2022/01/10 00:57:09;;;;;;;4.70;3.53;;;22.80;55.40;;;;;;4991814;28;20181;-73
2022/01/10 00:59:35;;;;;;;4.43;3.58;;;22.90;55.50;;;;;;4959687;28;20577;-73
2022/01/10 01:02:01;;;;;;;3.83;3.45;;;22.80;55.50;;;;;;4959939;28;20680;-73
2022/01/10 01:04:28;;;;;;;5.13;3.67;;;22.80;55.40;;;;;;4959287;28;20240;-73
2022/01/10 01:06:54;;;;;;;3.90;3.00;;;22.80;55.50;;;;;;4975847;28;20184;-73
2022/01/10 01:09:25;;;;;;;3.90;3.50;;;22.80;55.40;;;;;;4985580;28;20188;-73
2022/01/10 01:12:15;;;;;;;4.75;3.40;;;22.80;55.40;;;;;;4998787;28;20191;-73
2022/01/10 01:25:13;;;;;;;4.53;3.25;;;22.90;55.50;;;;;;4987720;28;20186;-72
2022/01/10 01:27:41;;;;;;;3.92;2.78;;;22.80;55.30;;;;;;4987692;28;20213;-72
2022/01/10 01:30:09;;;;;;;3.10;2.80;;;22.80;55.50;;;;;;4959642;28;20249;-72
2022/01/10 01:32:36;;;;;;;4.50;3.20;;;22.80;55.50;;;;;;4988058;28;20236;-73
2022/01/10 01:35:06;;;;;;;2.85;2.65;;;22.80;55.40;;;;;;4971202;28;20325;-73
2022/01/10 01:37:32;;;;;;;3.40;2.90;;;22.80;55.40;;;;;;4955565;28;20200;-72
2022/01/10 01:39:59;;;;;;;4.00;3.00;;;22.80;55.50;;;;;;4971663;28;20680;-73
2022/01/10 01:42:42;;;;;;;4.15;3.30;;;22.80;55.40;;;;;;4971528;28;20267;-73
2022/01/10 01:45:12;;;;;;;4.82;3.55;;;22.80;55.40;;;;;;4955228;28;20178;-72
2022/01/10 01:47:39;;;;;;;4.15;3.30;;;22.90;55.50;;;;;;4955460;28;20608;-72
2022/01/10 01:50:14;;;;;;;3.42;3.13;;;22.80;55.40;;;;;;4971815;28;20181;-73
2022/01/10 01:52:39;;;;;;;3.55;3.25;;;22.80;55.30;;;;;;4955355;28;20244;-73
2022/01/10 01:55:07;;;;;;;3.80;3.33;;;22.80;55.30;;;;;;4973230;28;20181;-73
2022/01/10 01:57:34;;;;;;;3.85;3.20;;;22.80;55.20;;;;;;4974994;28;20208;-73
2022/01/10 02:00:00;;;;;;;4.20;3.40;;;22.80;55.20;;;;;;4974496;28;20190;-72
2022/01/10 02:02:26;;;;;;;4.18;3.40;;;22.80;55.20;;;;;;4974841;28;20252;-72
2022/01/10 02:04:52;;;;;;;3.42;2.95;;;22.80;55.30;;;;;;4974428;28;20210;-73
2022/01/10 02:07:19;;;;;;;4.47;3.13;;;22.80;55.20;;;;;;4974453;28;20216;-73
2022/01/10 02:09:45;;;;;;;3.78;3.00;;;22.80;55.20;;;;;;4974367;28;20181;-72
2022/01/10 02:12:11;;;;;;;3.55;3.20;;;22.80;55.20;;;;;;4974709;28;20193;-72
2022/01/10 02:14:40;;;;;;;3.13;2.85;;;22.80;55.30;;;;;;4958236;28;20285;-73
2022/01/10 02:17:06;;;;;;;2.80;2.60;;;22.80;55.30;;;;;;4974255;28;20228;-73
2022/01/10 02:19:40;;;;;;;3.15;2.60;;;22.80;55.20;;;;;;4974770;28;20194;-73
2022/01/10 02:22:06;;;;;;;4.20;3.25;;;22.80;55.40;;;;;;4974256;28;20212;-73
2022/01/10 02:24:43;;;;;;;4.63;3.42;;;22.80;55.40;;;;;;4970804;28;20203;-73
2022/01/10 02:27:11;;;;;;;3.25;2.92;;;22.80;55.40;;;;;;4942223;28;20275;-73
2022/01/10 02:29:37;;;;;;;3.55;3.05;;;22.80;55.30;;;;;;4955075;28;20325;-73
2022/01/10 02:32:03;;;;;;;3.90;3.40;;;22.80;55.40;;;;;;4973280;28;20196;-73
2022/01/10 02:34:29;;;;;;;3.72;3.20;;;22.80;55.40;;;;;;4957934;28;20280;-73
2022/01/10 02:36:58;;;;;;;3.53;2.80;;;22.80;55.30;;;;;;4958010;28;20820;-73
2022/01/10 02:39:25;;;;;;;4.20;3.45;;;22.80;55.30;;;;;;4974054;28;20182;-73
2022/01/10 02:41:51;;;;;;;3.38;3.08;;;22.80;55.30;;;;;;4957731;28;20213;-72
2022/01/10 02:44:18;;;;;;;3.53;3.22;;;22.80;55.10;;;;;;4958307;28;20591;-72
2022/01/10 02:46:46;;;;;;;3.13;2.83;;;22.80;55.20;;;;;;4958284;28;20289;-72
2022/01/10 02:49:30;;;;;;;3.13;2.60;;;22.80;55.70;;;;;;4974396;28;20272;-73
2022/01/10 02:51:58;;;;;;;2.60;2.40;;;22.80;55.20;;;;;;4958424;28;20226;-72
2022/01/10 02:54:25;;;;;;;2.92;2.63;;;22.80;55.20;;;;;;4974094;28;20197;-72
2022/01/10 02:56:56;;;;;;;3.45;2.75;;;22.80;55.20;;;;;;4974475;28;20209;-72
2022/01/10 02:59:23;;;;;;;2.75;2.55;;;22.80;55.20;;;;;;4974026;28;20193;-72
2022/01/10 03:01:51;;;;;;;3.25;2.70;;;22.80;55.40;;;;;;4973846;28;20267;-72
2022/01/10 03:04:19;;;;;;;3.20;2.83;;;22.80;55.30;;;;;;4970710;28;20183;-73
2022/01/10 03:06:46;;;;;;;3.83;3.00;;;22.80;55.40;;;;;;4955474;28;20630;-72
2022/01/10 03:09:12;;;;;;;3.47;3.17;;;22.80;55.40;;;;;;4956627;28;20193;-72
2022/01/10 03:11:42;;;;;;;3.70;3.35;;;22.80;55.40;;;;;;4970925;28;20647;-72
2022/01/10 03:14:12;;;;;;;3.83;2.92;;;22.80;55.30;;;;;;4988799;28;20196;-72
2022/01/10 03:16:38;;;;;;;3.40;3.10;;;22.80;55.20;;;;;;4989885;28;20304;-72
2022/01/10 03:19:04;;;;;;;2.85;2.58;;;22.80;55.20;;;;;;4973978;28;20309;-72
2022/01/10 03:21:30;;;;;;;3.70;3.17;;;22.80;55.20;;;;;;4974076;28;20689;-72
2022/01/10 03:23:56;;;;;;;2.83;2.55;;;22.80;55.10;;;;;;4957700;28;20198;-72
2022/01/10 03:26:26;;;;;;;3.08;2.45;;;22.80;55.20;;;;;;4973706;28;20197;-72
2022/01/10 03:28:54;;;;;;;2.88;2.58;;;22.80;55.30;;;;;;4990211;28;20182;-72
2022/01/10 03:31:20;;;;;;;2.88;2.63;;;22.80;55.20;;;;;;4954261;28;20182;-72
2022/01/10 03:33:47;;;;;;;3.40;2.35;;;22.80;55.20;;;;;;4954328;28;20218;-72
2022/01/10 03:36:13;;;;;;;3.25;2.30;;;22.80;55.20;;;;;;4954284;28;20226;-72
2022/01/10 03:38:39;;;;;;;3.50;2.40;;;22.80;55.30;;;;;;4970604;28;20209;-72
2022/01/10 03:41:05;;;;;;;2.88;2.67;;;22.80;55.20;;;;;;4938233;28;20194;-72
2022/01/10 03:43:31;;;;;;;2.80;2.55;;;22.80;55.30;;;;;;4970321;28;20187;-72
2022/01/10 03:45:58;;;;;;;2.28;2.00;;;22.80;55.20;;;;;;4970210;28;20210;-71
2022/01/10 03:48:24;;;;;;;2.78;2.50;;;22.80;55.40;;;;;;4954017;29;20224;-72
2022/01/10 03:50:50;;;;;;;2.60;2.40;;;22.80;55.40;;;;;;4954387;28;20229;-72
2022/01/10 03:53:16;;;;;;;2.80;2.60;;;22.80;55.40;;;;;;4953960;28;20187;-72
2022/01/10 03:55:43;;;;;;;3.03;2.70;;;22.80;55.30;;;;;;4970087;28;20262;-72
2022/01/10 03:58:09;;;;;;;2.67;2.33;;;22.90;55.50;;;;;;4954295;28;20190;-72
2022/01/10 04:00:35;;;;;;;3.05;2.55;;;22.90;55.30;;;;;;4963798;28;20182;-72
2022/01/10 04:03:05;;;;;;;2.95;2.60;;;22.90;55.40;;;;;;4971654;28;20330;-72
2022/01/10 04:05:40;;;;;;;3.03;2.60;;;22.90;55.30;;;;;;4973070;28;20221;-72
2022/01/10 04:08:06;;;;;;;2.72;2.53;;;22.90;55.30;;;;;;4957175;28;20213;-72
2022/01/10 04:10:32;;;;;;;4.18;2.75;;;22.90;55.30;;;;;;4989037;28;20614;-73
2022/01/10 04:12:58;;;;;;;3.20;2.58;;;22.80;55.20;;;;;;4972875;28;20186;-72
2022/01/10 04:15:25;;;;;;;3.15;2.60;;;22.80;55.20;;;;;;4972450;28;20185;-72
2022/01/10 04:17:55;;;;;;;3.60;2.50;;;22.80;55.20;;;;;;4956175;28;20193;-72
2022/01/10 04:20:23;;;;;;;2.42;2.22;;;22.80;55.20;;;;;;4973140;28;20185;-72
2022/01/10 04:22:49;;;;;;;2.78;2.50;;;22.80;55.20;;;;;;4972921;28;20217;-72
2022/01/10 04:25:15;;;;;;;3.40;2.35;;;22.80;55.20;;;;;;4972712;28;20649;-72
2022/01/10 04:27:42;;;;;;;2.38;2.17;;;22.80;55.20;;;;;;4957290;28;20245;-72
2022/01/10 04:30:08;;;;;;;2.20;2.00;;;22.80;55.20;;;;;;4972826;28;20182;-72
2022/01/10 04:32:34;;;;;;;2.72;2.50;;;22.80;55.30;;;;;;4972671;28;20178;-72
2022/01/10 04:35:00;;;;;;;2.47;2.28;;;22.90;55.30;;;;;;4972548;28;20208;-73
2022/01/10 04:37:27;;;;;;;3.60;2.80;;;22.80;55.20;;;;;;4969631;28;20225;-73
2022/01/10 04:39:53;;;;;;;3.20;2.28;;;22.90;55.50;;;;;;4969556;28;20626;-72
2022/01/10 04:42:19;;;;;;;2.65;2.40;;;22.90;55.40;;;;;;4937134;28;20221;-72
2022/01/10 04:44:45;;;;;;;2.72;2.35;;;22.80;55.40;;;;;;4937026;29;20194;-72
2022/01/10 04:47:11;;;;;;;3.78;2.63;;;22.80;55.40;;;;;;4937346;29;20210;-72
2022/01/10 04:52:14;;;;;;;3.05;2.40;;;22.90;55.50;;;;;;4953022;29;20240;-72
2022/01/10 04:54:40;;;;;;;3.30;3.00;;;22.90;55.50;;;;;;4968991;28;20198;-72
2022/01/10 04:57:06;;;;;;;4.30;3.03;;;22.80;55.40;;;;;;4952931;28;20239;-72
2022/01/10 04:59:31;;;;;;;3.70;2.92;;;22.90;55.40;;;;;;4941855;28;20182;-72
2022/01/10 05:01:57;;;;;;;3.08;2.60;;;22.90;55.40;;;;;;4988347;28;20244;-72
2022/01/10 05:04:23;;;;;;;2.42;2.22;;;22.90;55.20;;;;;;4956089;28;20192;-72
2022/01/10 05:06:49;;;;;;;3.33;2.80;;;22.90;55.30;;;;;;4972659;28;20220;-72
2022/01/10 05:09:14;;;;;;;2.78;2.40;;;22.90;55.40;;;;;;4956501;28;20177;-72
2022/01/10 05:11:59;;;;;;;2.90;2.60;;;22.80;55.20;;;;;;4959146;28;20186;-72
2022/01/10 05:14:25;;;;;;;2.45;2.25;;;22.90;55.30;;;;;;4972048;28;20289;-73
2022/01/10 05:16:52;;;;;;;2.80;2.35;;;22.90;55.30;;;;;;4988218;28;20217;-72
2022/01/10 05:19:18;;;;;;;2.70;2.00;;;22.90;55.40;;;;;;4972439;28;20217;-72
2022/01/10 05:21:44;;;;;;;2.58;2.33;;;22.80;55.30;;;;;;4972363;28;20696;-72
2022/01/10 05:24:10;;;;;;;2.90;2.60;;;22.90;55.40;;;;;;4972361;28;20653;-72
2022/01/10 05:26:37;;;;;;;3.22;2.13;;;22.90;55.50;;;;;;4955776;28;20213;-72
2022/01/10 05:29:04;;;;;;;3.78;2.30;;;22.90;55.50;;;;;;4973138;28;20182;-71
2022/01/10 05:31:34;;;;;;;2.63;2.40;;;22.90;55.50;;;;;;4976016;28;20186;-72
2022/01/10 05:34:13;;;;;;;4.05;2.50;;;22.90;55.50;;;;;;4975514;28;20248;-72
2022/01/10 05:36:39;;;;;;;4.63;2.35;;;22.90;55.50;;;;;;4975859;28;20684;-72
2022/01/10 05:39:07;;;;;;;4.03;2.72;;;22.90;55.50;;;;;;4975789;28;20189;-72
2022/01/10 05:41:34;;;;;;;2.47;2.00;;;23.00;55.70;;;;;;4975646;28;20217;-72
2022/01/10 05:44:01;;;;;;;3.30;2.67;;;22.90;55.70;;;;;;4975606;28;20240;-72
2022/01/10 05:46:27;;;;;;;2.70;2.30;;;22.90;55.60;;;;;;4959229;28;20261;-72
2022/01/10 05:48:59;;;;;;;2.92;2.35;;;22.90;55.80;;;;;;4975536;28;20190;-72
2022/01/10 05:51:28;;;;;;;3.88;2.58;;;22.90;55.90;;;;;;4975573;28;20186;-72
2022/01/10 05:53:59;;;;;;;3.85;2.22;;;22.90;55.70;;;;;;4975722;28;20188;-72
2022/01/10 05:56:26;;;;;;;2.92;2.60;;;22.90;55.90;;;;;;4975076;28;20201;-71
2022/01/10 05:58:59;;;;;;;3.78;2.00;;;22.90;55.70;;;;;;4975585;28;20185;-72
2022/01/10 06:01:25;;;;;;;2.75;2.22;;;23.00;55.80;;;;;;4974997;28;20429;-71
2022/01/10 06:03:57;;;;;;;2.47;2.00;;;23.00;55.70;;;;;;4971906;28;20178;-72
2022/01/10 06:06:32;;;;;;;3.33;2.25;;;23.00;55.70;;;;;;4955678;28;20202;-72
2022/01/10 06:08:58;;;;;;;5.95;2.63;;;23.00;55.70;;;;;;4955778;28;20194;-72
2022/01/10 06:11:24;;;;;;;5.32;2.97;;;23.00;55.80;;;;;;4939862;29;20182;-72
2022/01/10 06:13:51;;;;;;;4.75;2.67;;;23.00;56.10;;;;;;4955887;28;20225;-72
2022/01/10 06:16:17;;;;;;;3.38;2.60;;;23.00;55.80;;;;;;4970977;28;20233;-73
2022/01/10 06:18:45;;;;;;;6.05;2.45;;;23.00;55.80;;;;;;4974160;28;20244;-73
2022/01/10 06:21:10;;;;;;;4.05;2.72;;;23.00;55.70;;;;;;4974426;28;20186;-72
2022/01/10 06:23:37;;;;;;;6.68;2.60;;;23.00;55.80;;;;;;4958183;28;20190;-72
2022/01/10 06:26:03;;;;;;;3.15;2.50;;;23.00;56.00;;;;;;4973738;28;20206;-72
2022/01/10 06:28:30;;;;;;;4.05;2.70;;;23.00;56.10;;;;;;4974447;28;20184;-73
2022/01/10 06:30:57;;;;;;;4.72;2.60;;;23.00;56.10;;;;;;4989218;28;20189;-72
2022/01/10 06:33:26;;;;;;;4.10;2.30;;;22.90;55.90;;;;;;4955698;28;20208;-73
2022/01/10 06:35:53;;;;;;;3.10;2.20;;;22.90;56.10;;;;;;4957167;28;20700;-73
2022/01/10 06:38:19;;;;;;;2.25;1.98;;;23.00;56.20;;;;;;4970636;28;20217;-73
2022/01/10 06:40:45;;;;;;;3.42;2.35;;;23.00;56.20;;;;;;4965117;28;20595;-73
2022/01/10 06:43:11;;;;;;;5.60;2.30;;;23.00;56.10;;;;;;4973176;28;20304;-73
2022/01/10 06:45:37;;;;;;;4.95;2.30;;;23.00;56.10;;;;;;4989692;28;20241;-71
2022/01/10 06:48:05;;;;;;;6.15;2.20;;;23.00;56.10;;;;;;4958186;28;20224;-73
2022/01/10 06:50:34;;;;;;;6.90;2.25;;;23.00;56.00;;;;;;4973742;28;20598;-73
2022/01/10 06:53:02;;;;;;;4.22;2.20;;;23.00;55.90;;;;;;4972512;28;20197;-73
2022/01/10 06:55:29;;;;;;;6.65;2.50;;;23.00;56.00;;;;;;4989676;28;20292;-73
2022/01/10 06:57:58;;;;;;;5.63;2.58;;;23.00;56.00;;;;;;4957972;28;20272;-73
2022/01/10 07:00:26;;;;;;;2.75;2.28;;;23.00;56.10;;;;;;4957656;28;20186;-72
2022/01/10 07:02:55;;;;;;;4.05;2.50;;;23.00;56.00;;;;;;4972223;28;20209;-74
2022/01/10 07:05:21;;;;;;;5.28;2.38;;;23.00;55.80;;;;;;4973274;28;20181;-73
2022/01/10 07:07:50;;;;;;;4.53;2.63;;;22.90;55.90;;;;;;4973389;28;20182;-73
2022/01/10 07:10:29;;;;;;;2.38;2.17;;;23.00;56.00;;;;;;4973689;28;20189;-73
2022/01/10 07:12:56;;;;;;;4.15;2.35;;;23.00;55.90;;;;;;4989677;28;20194;-74
2022/01/10 07:15:24;;;;;;;3.35;1.88;;;22.90;55.90;;;;;;4956954;28;20196;-74
2022/01/10 07:17:52;;;;;;;4.07;2.15;;;23.00;56.10;;;;;;5010662;23;20245;-71
2022/01/10 07:20:20;;;;;;;2.15;1.85;;;22.90;55.90;;;;;;4973790;28;20186;-71
2022/01/10 07:22:47;;;;;;;4.47;2.28;;;22.90;55.90;;;;;;4973727;28;20689;-71
2022/01/10 07:25:13;;;;;;;2.78;2.10;;;23.00;55.90;;;;;;4972616;28;20181;-71
2022/01/10 07:27:39;;;;;;;3.88;2.72;;;23.00;55.80;;;;;;4985781;28;20210;-71
2022/01/10 07:30:06;;;;;;;3.97;1.88;;;23.00;55.80;;;;;;4987758;28;20563;-71
2022/01/10 07:32:32;;;;;;;3.30;1.88;;;23.00;55.80;;;;;;4974561;28;20248;-71
2022/01/10 07:34:58;;;;;;;2.50;2.15;;;23.00;55.90;;;;;;4989382;28;20285;-71
2022/01/10 07:37:24;;;;;;;3.60;1.70;;;23.00;56.40;;;;;;4973381;28;20209;-69
2022/01/10 07:39:51;;;;;;;2.92;1.92;;;23.00;55.90;;;;;;4973497;28;20205;-71
2022/01/10 07:42:17;;;;;;;2.88;1.92;;;23.00;55.80;;;;;;4973447;28;20213;-71
2022/01/10 07:44:52;;;;;;;4.22;2.15;;;23.00;55.80;;;;;;4988512;28;20177;-71
2022/01/10 07:47:17;;;;;;;5.75;1.80;;;23.00;55.80;;;;;;4989738;28;20201;-71
2022/01/10 07:49:43;;;;;;;4.20;2.30;;;23.00;55.90;;;;;;4989724;28;20190;-71
2022/01/10 07:52:09;;;;;;;3.30;1.85;;;23.00;55.90;;;;;;4969633;28;20200;-71
2022/01/10 07:54:35;;;;;;;2.60;1.80;;;23.00;55.90;;;;;;4981001;28;20178;-71
2022/01/10 07:57:00;;;;;;;2.28;1.90;;;23.00;55.90;;;;;;4973067;28;20210;-71
2022/01/10 07:59:26;;;;;;;3.00;2.20;;;23.00;56.00;;;;;;4981218;28;20189;-71
2022/01/10 08:01:52;;;;;;;2.58;1.75;;;23.00;55.90;;;;;;4989308;28;20213;-71
2022/01/10 08:04:18;;;;;;;4.05;2.30;;;23.00;55.90;;;;;;4972776;28;20276;-70
2022/01/10 08:06:44;;;;;;;3.63;1.85;;;23.00;55.80;;;;;;4972904;28;20206;-71
2022/01/10 08:09:10;;;;;;;2.33;1.80;;;23.00;55.80;;;;;;4973112;28;20250;-71
2022/01/10 08:11:35;;;;;;;4.10;1.77;;;23.00;55.80;;;;;;4989503;28;20196;-71
2022/01/10 08:14:02;;;;;;;1.88;1.70;;;23.00;55.80;;;;;;4972852;28;20196;-71
2022/01/10 08:16:28;;;;;;;2.13;1.80;;;23.00;55.80;;;;;;4972492;28;20220;-71
2022/01/10 08:18:54;;;;;;;1.70;1.60;;;23.00;55.70;;;;;;4988979;28;20189;-71
2022/01/10 08:21:19;;;;;;;3.97;1.95;;;23.00;55.80;;;;;;4989110;28;20204;-71
2022/01/10 08:23:45;;;;;;;3.97;1.95;;;23.00;55.80;;;;;;4988981;28;20185;-71
2022/01/10 08:26:11;;;;;;;3.72;1.75;;;23.00;55.70;;;;;;4988963;28;20236;-71
2022/01/10 08:28:39;;;;;;;2.72;1.67;;;23.00;55.70;;;;;;4972732;28;20231;-71
2022/01/10 08:31:05;;;;;;;3.30;1.85;;;23.00;55.70;;;;;;4972662;28;20285;-71
2022/01/10 08:33:31;;;;;;;3.38;1.52;;;23.00;55.80;;;;;;4972480;28;20224;-71
2022/01/10 08:35:58;;;;;;;2.10;1.55;;;23.00;55.70;;;;;;4988373;28;20189;-71
2022/01/10 08:38:24;;;;;;;2.45;1.45;;;23.00;55.70;;;;;;4973736;28;20273;-70
2022/01/10 08:40:50;;;;;;;3.10;1.98;;;22.90;55.60;;;;;;4988631;28;20197;-70
2022/01/10 08:43:16;;;;;;;2.67;1.80;;;22.90;55.60;;;;;;4988748;28;20209;-71
2022/01/10 08:45:44;;;;;;;3.53;1.90;;;22.90;55.50;;;;;;4988538;28;20185;-71
2022/01/10 08:48:11;;;;;;;2.50;1.83;;;22.90;55.50;;;;;;4971853;28;20213;-70
2022/01/10 08:50:37;;;;;;;3.47;1.77;;;23.00;55.40;;;;;;4988410;28;20232;-70
2022/01/10 08:53:06;;;;;;;2.53;1.73;;;23.00;55.30;;;;;;4988756;28;20189;-71
2022/01/10 08:55:32;;;;;;;2.95;1.67;;;23.00;55.30;;;;;;4972033;28;20190;-71
2022/01/10 08:57:59;;;;;;;2.85;1.85;;;23.00;55.30;;;;;;4972239;28;20218;-70
2022/01/10 09:00:26;;;;;;;1.90;1.73;;;23.00;55.30;;;;;;4970800;28;20232;-71
2022/01/10 09:02:52;;;;;;;2.97;1.80;;;23.00;55.30;;;;;;4953138;28;20353;-71
2022/01/10 09:05:18;;;;;;;1.50;1.40;;;23.00;55.60;;;;;;4971734;28;20269;-71
2022/01/10 09:07:45;;;;;;;2.60;1.90;;;23.00;55.40;;;;;;4978084;28;20217;-71
2022/01/10 09:10:11;;;;;;;2.85;1.50;;;23.00;55.60;;;;;;4990461;28;20202;-71
2022/01/10 09:12:38;;;;;;;2.03;1.60;;;23.00;55.60;;;;;;4976286;28;20195;-71
2022/01/10 09:15:06;;;;;;;3.85;1.75;;;23.10;55.70;;;;;;4991995;28;20237;-71
2022/01/10 09:17:32;;;;;;;2.08;1.65;;;23.10;55.70;;;;;;4976130;28;20217;-71
2022/01/10 09:19:59;;;;;;;2.10;1.63;;;23.10;55.60;;;;;;4992098;28;20200;-72
2022/01/10 09:22:25;;;;;;;2.08;1.35;;;23.00;55.60;;;;;;4974901;28;20214;-71
2022/01/10 09:24:51;;;;;;;3.47;1.55;;;23.10;55.50;;;;;;4988407;28;20194;-71
2022/01/10 09:27:16;;;;;;;3.15;1.73;;;23.10;55.50;;;;;;4967921;28;20212;-71
2022/01/10 09:29:46;;;;;;;1.48;1.23;;;23.10;55.60;;;;;;4992084;28;20193;-71
2022/01/10 09:32:12;;;;;;;3.00;1.70;;;23.10;55.50;;;;;;4976568;28;20205;-71
2022/01/10 09:34:38;;;;;;;2.67;1.65;;;23.10;55.50;;;;;;4975878;28;20712;-70
2022/01/10 09:37:04;;;;;;;3.83;1.65;;;23.10;55.40;;;;;;4992196;28;20676;-71
2022/01/10 09:39:30;;;;;;;2.92;1.80;;;23.10;55.50;;;;;;4991834;28;20201;-71
2022/01/10 09:41:57;;;;;;;2.33;1.65;;;23.10;55.50;;;;;;4976659;28;20209;-71
2022/01/10 09:44:24;;;;;;;3.60;1.50;;;23.10;55.40;;;;;;4991841;28;20189;-71
2022/01/10 09:46:49;;;;;;;2.97;1.83;;;23.10;55.40;;;;;;4991516;28;20213;-71
2022/01/10 09:49:17;;;;;;;1.70;1.60;;;23.10;55.40;;;;;;4976823;28;20185;-71
2022/01/10 09:51:43;;;;;;;1.77;1.50;;;23.10;55.40;;;;;;4975545;28;20182;-71
2022/01/10 09:54:09;;;;;;;3.15;2.10;;;23.00;55.40;;;;;;4991824;28;20204;-70
2022/01/10 09:56:35;;;;;;;1.95;1.60;;;23.00;55.30;;;;;;4975037;28;20220;-70
2022/01/10 09:59:02;;;;;;;1.83;1.40;;;23.00;55.40;;;;;;4991360;28;20186;-71
2022/01/10 10:01:30;;;;;;;3.60;1.50;;;23.10;55.30;;;;;;4987934;28;20182;-71
2022/01/10 10:03:59;;;;;;;3.17;1.58;;;23.10;55.30;;;;;;4990175;28;20582;-72
2022/01/10 10:06:28;;;;;;;2.05;1.73;;;23.10;55.30;;;;;;4991237;28;20606;-71
2022/01/10 10:08:59;;;;;;;2.70;1.80;;;23.10;55.30;;;;;;4991232;28;20192;-71
2022/01/10 10:11:55;;;;;;;3.25;1.38;;;23.10;55.40;;;;;;4975275;28;20183;-71
2022/01/10 10:14:23;;;;;;;4.00;1.73;;;23.10;55.20;;;;;;4975722;28;20243;-70
2022/01/10 10:16:55;;;;;;;3.28;2.00;;;23.10;55.10;;;;;;4974790;28;20209;-71
2022/01/10 10:19:27;;;;;;;2.42;2.03;;;23.10;55.10;;;;;;4991104;28;20653;-70
2022/01/10 10:21:56;;;;;;;1.92;1.73;;;23.10;55.10;;;;;;4991213;28;20260;-71
2022/01/10 10:24:24;;;;;;;2.80;1.67;;;23.10;55.10;;;;;;4990996;28;20204;-70
2022/01/10 10:26:50;;;;;;;2.70;1.80;;;23.10;55.10;;;;;;4974970;28;20296;-70
2022/01/10 10:29:18;;;;;;;3.30;2.00;;;23.10;55.00;;;;;;4975002;28;20205;-71
2022/01/10 10:31:54;;;;;;;2.90;1.85;;;23.10;55.10;;;;;;4987482;28;20182;-71
2022/01/10 10:34:29;;;;;;;2.38;1.58;;;23.10;55.00;;;;;;4982756;28;20560;-70
2022/01/10 10:37:08;;;;;;;2.17;1.45;;;23.10;55.30;;;;;;4990869;28;20205;-70
2022/01/10 10:39:39;;;;;;;1.73;1.40;;;23.10;55.10;;;;;;4991091;28;20252;-71
2022/01/10 10:42:08;;;;;;;1.58;1.33;;;23.10;55.00;;;;;;4989785;28;20210;-70
2022/01/10 10:44:34;;;;;;;3.30;1.73;;;23.20;55.10;;;;;;4973928;28;20190;-70
2022/01/10 10:47:00;;;;;;;3.85;1.60;;;23.10;55.00;;;;;;4974152;28;20213;-70
2022/01/10 10:49:33;;;;;;;3.22;1.70;;;23.10;55.00;;;;;;4965920;28;20185;-71
2022/01/10 10:52:03;;;;;;;2.55;1.45;;;23.10;55.10;;;;;;4990329;28;20185;-71
2022/01/10 10:54:34;;;;;;;2.60;1.90;;;23.10;55.00;;;;;;4990593;28;20213;-70
2022/01/10 10:57:04;;;;;;;2.72;1.63;;;23.20;55.10;;;;;;4975363;28;20255;-70
2022/01/10 10:59:35;;;;;;;2.53;1.60;;;23.20;55.10;;;;;;4974233;28;20190;-71
2022/01/10 11:02:02;;;;;;;2.17;1.45;;;23.20;55.10;;;;;;4964175;28;20213;-70
2022/01/10 11:04:30;;;;;;;2.28;1.48;;;23.20;55.20;;;;;;4974016;28;20186;-70
2022/01/10 11:06:57;;;;;;;1.95;1.40;;;23.20;55.10;;;;;;4975311;28;20296;-71
2022/01/10 11:09:24;;;;;;;2.10;1.75;;;23.20;55.20;;;;;;4973960;28;20186;-70
2022/01/10 11:11:51;;;;;;;1.30;1.13;;;23.20;55.10;;;;;;4974026;28;20202;-73
2022/01/10 11:14:22;;;;;;;2.42;1.60;;;23.20;55.10;;;;;;4973911;28;20197;-70
2022/01/10 11:16:50;;;;;;;7.43;3.65;;;23.20;55.10;;;;;;4974071;28;20276;-70
2022/01/10 11:19:26;;;;;;;19.60;6.40;;;23.20;55.10;;;;;;4957740;28;20225;-71
2022/01/10 11:22:08;;;;;;;25.27;8.85;;;23.20;55.10;;;;;;4973879;28;20212;-71
2022/01/10 11:24:47;;;;;;;23.23;9.18;;;23.20;55.10;;;;;;4974734;28;20196;-70
2022/01/10 11:27:35;;;;;;;39.58;13.38;;;23.20;55.10;;;;;;4973182;28;20295;-70
2022/01/10 11:30:28;;;;;;;42.17;14.57;;;23.20;55.20;;;;;;4963210;28;20288;-70
2022/01/10 11:33:36;;;;;;;47.10;16.23;;;23.20;55.20;;;;;;4990052;28;20186;-70
2022/01/10 11:36:08;;;;;;;45.35;16.05;;;23.20;55.20;;;;;;4954825;28;20344;-70
2022/01/10 11:38:48;;;;;;;45.03;17.00;;;23.20;55.30;;;;;;4974713;28;20174;-70
2022/01/10 11:41:14;;;;;;;45.45;16.42;;;23.20;55.40;;;;;;4973915;28;20562;-70
2022/01/10 11:44:04;;;;;;;51.20;16.50;;;23.20;55.50;;;;;;4989605;28;20221;-69
2022/01/10 11:46:51;;;;;;;38.88;15.05;;;23.20;55.50;;;;;;4973191;28;20285;-70
2022/01/10 11:49:20;;;;;;;48.83;16.38;;;23.20;55.50;;;;;;4989854;28;20178;-70
2022/01/10 11:51:52;;;;;;;50.15;18.02;;;23.20;55.40;;;;;;4973687;28;20549;-70
2022/01/10 11:54:30;;;;;;;42.75;16.90;;;23.20;55.40;;;;;;4973080;28;20200;-70
2022/01/10 11:57:01;;;;;;;41.75;16.52;;;23.20;55.50;;;;;;4973268;28;20259;-70
2022/01/10 11:59:42;;;;;;;42.50;15.98;;;23.20;55.70;;;;;;4973017;28;20178;-71
2022/01/10 12:02:16;;;;;;;38.45;16.00;;;23.20;55.70;;;;;;4989303;28;20235;-70
2022/01/10 12:04:52;;;;;;;38.13;14.25;;;23.20;55.60;;;;;;4989277;28;20223;-70
2022/01/10 12:07:24;;;;;;;38.30;15.07;;;23.20;55.60;;;;;;4972855;28;20204;-69
2022/01/10 12:09:51;;;;;;;38.42;14.88;;;23.20;55.70;;;;;;4972918;28;20182;-72
2022/01/10 12:12:20;;;;;;;33.33;14.85;;;23.20;55.60;;;;;;4972852;28;20196;-72
2022/01/10 12:14:48;;;;;;;33.50;14.27;;;23.20;55.60;;;;;;4980012;28;20229;-71
2022/01/10 12:17:15;;;;;;;37.20;14.43;;;23.20;55.60;;;;;;4972926;28;20205;-71
2022/01/10 12:19:43;;;;;;;32.88;13.77;;;23.20;55.50;;;;;;4972888;28;20239;-71
2022/01/10 12:22:10;;;;;;;35.75;15.10;;;23.20;55.50;;;;;;4969735;28;20210;-71
2022/01/10 12:24:42;;;;;;;37.45;14.40;;;23.30;55.60;;;;;;4953153;28;20179;-71
2022/01/10 12:27:09;;;;;;;32.15;13.95;;;23.20;55.50;;;;;;4969475;28;20260;-70
2022/01/10 12:29:36;;;;;;;32.33;13.45;;;23.20;55.40;;;;;;4961053;28;20189;-70
2022/01/10 12:32:04;;;;;;;30.65;13.48;;;23.20;55.40;;;;;;4980513;28;20236;-71
2022/01/10 12:34:31;;;;;;;31.25;13.27;;;23.20;55.50;;;;;;4972033;28;20197;-70
2022/01/10 12:36:57;;;;;;;29.75;12.20;;;23.20;55.50;;;;;;4973661;28;20205;-71
2022/01/10 12:39:28;;;;;;;27.60;11.70;;;23.20;55.50;;;;;;4971798;28;20200;-72
2022/01/10 12:41:57;;;;;;;32.15;12.55;;;23.20;55.40;;;;;;4973621;28;20224;-73
2022/01/10 12:44:25;;;;;;;26.90;11.52;;;23.20;55.60;;;;;;4988735;28;20228;-72
2022/01/10 12:46:51;;;;;;;27.17;11.00;;;23.20;55.50;;;;;;4988817;28;20217;-73
2022/01/10 12:49:18;;;;;;;22.73;10.85;;;23.20;55.40;;;;;;4973730;28;20177;-74
2022/01/10 12:51:47;;;;;;;26.27;11.02;;;23.10;55.30;;;;;;4956302;28;20185;-73
2022/01/10 12:54:23;;;;;;;27.40;11.00;;;23.20;55.40;;;;;;4972157;28;20293;-71
2022/01/10 12:56:50;;;;;;;22.98;10.32;;;23.10;55.20;;;;;;4972348;28;20296;-72
2022/01/10 12:59:21;;;;;;;23.25;10.13;;;23.20;55.20;;;;;;4972206;28;20193;-73
2022/01/10 13:01:47;;;;;;;22.02;9.55;;;23.20;55.10;;;;;;4960845;28;20166;-72